Time;durP1;ratioP1;P1;durP2;ratioP2;P2;SDS_P1;SDS_P2;PMS_P1;PMS_P2;Temp;Humidity;BMP_temperature;BMP_pressure;BME280_temperature;BME280_humidity;BME280_pressure;Samples;Min_cycle;Max_cycle;Signal;HPM_P1;HPM_P2
2022/09/25 00:00:54;;;;;;;30.35;14.73;;;;;;;13.39;88.82;100951.09;5055536;28;20044;-50
2022/09/25 00:03:23;;;;;;;36.60;15.75;;;;;;;13.38;88.83;100941.41;5053789;28;20044;-52
2022/09/25 00:05:51;;;;;;;28.75;14.25;;;;;;;13.38;88.88;100943.25;5055212;28;20106;-52
2022/09/25 00:08:18;;;;;;;29.00;14.38;;;;;;;13.30;89.06;100943.22;5055386;28;20498;-52
2022/09/25 00:10:48;;;;;;;33.78;14.68;;;;;;;13.22;89.12;100946.72;5055025;28;20053;-51
2022/09/25 00:13:17;;;;;;;30.45;14.02;;;;;;;13.23;89.34;100943.88;5055555;28;20498;-51
2022/09/25 00:15:49;;;;;;;27.40;14.30;;;;;;;13.21;89.88;100943.22;5055072;28;20071;-50
2022/09/25 00:19:48;;;;;;;26.25;12.73;;;;;;;13.15;89.98;100940.38;5055106;28;20399;-51
2022/09/25 00:21:05;;;;;;;23.90;11.55;;;;;;;13.14;89.82;100944.06;5054496;28;20049;-50
2022/09/25 00:23:33;;;;;;;29.30;12.20;;;;;;;13.05;90.62;100943.22;5054990;28;20437;-50
2022/09/25 00:26:01;;;;;;;26.90;12.43;;;;;;;13.10;90.84;100937.38;5054140;28;20052;-48
2022/09/25 00:28:28;;;;;;;26.80;11.65;;;;;;;13.15;90.48;100937.72;5054712;28;20088;-49
2022/09/25 00:30:55;;;;;;;23.08;10.93;;;;;;;13.17;90.83;100943.72;5054849;28;20106;-51
2022/09/25 00:33:23;;;;;;;23.50;11.25;;;;;;;13.20;90.92;100930.06;5054817;28;20044;-49
2022/09/25 00:35:50;;;;;;;22.67;11.90;;;;;;;13.18;90.04;100930.22;5054648;28;20410;-52
2022/09/25 00:38:16;;;;;;;22.80;11.05;;;;;;;13.19;90.85;100931.91;5054446;28;20099;-51
2022/09/25 00:40:43;;;;;;;22.40;10.80;;;;;;;13.20;90.08;100938.06;5054551;28;20055;-53
2022/09/25 00:43:14;;;;;;;22.42;11.27;;;;;;;13.32;89.66;100933.28;5054407;28;20043;-53
2022/09/25 00:45:42;;;;;;;30.63;11.05;;;;;;;13.28;89.62;100930.09;5054948;28;20044;-53
2022/09/25 00:48:14;;;;;;;21.65;11.15;;;;;;;13.21;89.92;100934.41;5054157;28;20406;-53
2022/09/25 00:50:50;;;;;;;18.13;9.85;;;;;;;13.28;89.75;100940.75;5017150;28;20045;-53
2022/09/25 00:53:22;;;;;;;24.25;9.80;;;;;;;13.22;90.09;100941.38;4999537;28;20060;-52
2022/09/25 00:55:49;;;;;;;22.67;10.48;;;;;;;13.21;89.66;100947.72;5054273;28;20049;-52
2022/09/25 00:58:21;;;;;;;29.90;11.10;;;;;;;13.10;89.72;100948.03;5054616;28;20087;-53
2022/09/25 01:00:50;;;;;;;32.42;10.50;;;;;;;13.08;89.63;100942.91;5053955;28;20055;-53
2022/09/25 01:03:18;;;;;;;22.38;9.75;;;;;;;13.13;89.33;100947.72;5054047;28;20049;-52
2022/09/25 01:05:46;;;;;;;25.05;8.65;;;;;;;13.10;89.27;100951.56;5052749;28;20110;-52
2022/09/25 01:08:17;;;;;;;25.15;9.40;;;;;;;13.13;89.33;100950.38;5054375;28;20487;-52
2022/09/25 01:10:44;;;;;;;23.63;8.57;;;;;;;13.19;88.95;100950.56;5053901;28;20440;-52
2022/09/25 01:13:14;;;;;;;20.92;8.65;;;;;;;13.21;89.11;100945.06;5054001;28;20040;-51
2022/09/25 01:16:03;;;;;;;21.33;8.15;;;;;;;13.14;88.89;100944.88;5052931;28;20036;-52
2022/09/25 01:19:05;;;;;;;18.38;7.38;;;;;;;13.13;88.83;100945.06;5052036;28;20079;-52
2022/09/25 01:21:51;;;;;;;21.77;7.15;;;;;;;13.11;88.48;100947.06;5053739;28;20076;-52
2022/09/25 01:24:43;;;;;;;19.25;7.28;;;;;;;13.17;88.37;100944.56;5053975;28;20525;-53
2022/09/25 01:27:39;;;;;;;18.55;7.20;;;;;;;13.28;87.83;100947.88;5053369;28;20106;-49
2022/09/25 01:30:10;;;;;;;18.25;5.80;;;;;;;13.12;87.31;100949.56;5053337;28;20533;-53
2022/09/25 01:33:04;;;;;;;20.83;6.10;;;;;;;13.10;87.56;100948.88;5052562;28;20418;-52
2022/09/25 01:35:56;;;;;;;19.98;6.15;;;;;;;13.09;88.15;100946.38;5053834;28;20047;-52
2022/09/25 01:38:30;;;;;;;17.75;5.70;;;;;;;13.07;88.35;100947.38;5032212;28;20491;-53
2022/09/25 01:41:23;;;;;;;16.52;6.60;;;;;;;13.03;89.25;100951.38;5033318;28;20099;-51
2022/09/25 01:43:59;;;;;;;21.80;7.65;;;;;;;12.95;90.25;100954.03;5033529;28;20046;-52
2022/09/25 01:46:32;;;;;;;22.02;7.85;;;;;;;12.98;90.08;100947.53;5033462;28;20442;-52
2022/09/25 01:49:05;;;;;;;20.08;7.03;;;;;;;13.03;90.83;100947.88;5033701;28;20045;-53
2022/09/25 01:51:39;;;;;;;20.25;7.30;;;;;;;13.01;90.92;100957.88;4920668;28;20128;-51
2022/09/25 01:54:11;;;;;;;25.27;6.75;;;;;;;13.05;90.52;100960.03;5033734;28;20053;-53
2022/09/25 01:56:49;;;;;;;18.08;6.60;;;;;;;13.03;90.51;100961.19;5031960;28;20054;-52
2022/09/25 01:59:21;;;;;;;21.83;7.65;;;;;;;13.03;90.92;100967.34;5033391;28;20045;-55
2022/09/25 02:01:50;;;;;;;19.40;6.65;;;;;;;13.01;90.33;100964.03;5033504;28;20081;-55
2022/09/25 02:04:25;;;;;;;21.98;5.55;;;;;;;13.14;89.97;100968.03;5032618;28;20057;-54
2022/09/25 02:06:55;;;;;;;15.15;4.95;;;;;;;13.12;90.19;100962.06;5043922;28;20036;-53
2022/09/25 02:09:31;;;;;;;16.05;4.57;;;;;;;12.97;91.00;100961.84;5053123;28;20067;-52
2022/09/25 02:12:05;;;;;;;22.38;5.03;;;;;;;12.82;91.73;100964.31;5052748;28;20041;-53
2022/09/25 02:14:47;;;;;;;18.90;5.25;;;;;;;12.82;92.15;100957.19;5053074;28;20052;-53
2022/09/25 02:20:30;;;;;;;34.08;5.85;;;;;;;12.75;92.98;100968.63;5052996;28;20048;-52
2022/09/25 02:20:41;;;;;;;20.55;5.70;;;;;;;12.64;93.32;100964.44;5052532;28;20398;-53
2022/09/25 02:23:05;;;;;;;18.88;5.63;;;;;;;12.55;94.48;100960.94;5051889;28;20402;-53
2022/09/25 02:25:39;;;;;;;17.52;5.68;;;;;;;12.58;96.21;100965.91;5052958;28;20423;-52
2022/09/25 02:28:06;;;;;;;16.52;5.38;;;;;;;12.65;96.24;100963.44;5052505;28;20507;-50
2022/09/25 02:30:33;;;;;;;18.70;4.95;;;;;;;12.61;95.97;100962.94;5051639;28;20041;-50
2022/09/25 02:33:00;;;;;;;23.15;5.70;;;;;;;12.56;96.50;100965.25;5052791;28;20296;-52
2022/09/25 02:35:27;;;;;;;18.70;5.18;;;;;;;12.55;97.55;100960.09;5053060;28;20453;-52
2022/09/25 02:37:56;;;;;;;15.93;4.80;;;;;;;12.64;96.77;100967.94;5052547;28;20045;-52
2022/09/25 02:40:30;;;;;;;18.52;4.90;;;;;;;12.58;95.88;100965.09;5051499;28;20082;-53
2022/09/25 02:43:10;;;;;;;18.88;4.82;;;;;;;12.70;96.82;100965.59;5052340;28;20388;-54
2022/09/25 02:45:49;;;;;;;21.50;5.32;;;;;;;12.66;95.79;100968.63;5053096;28;20490;-54
2022/09/25 02:48:56;;;;;;;13.13;4.25;;;;;;;12.66;94.90;100962.44;5053004;28;20049;-53
2022/09/25 02:51:30;;;;;;;18.17;4.30;;;;;;;12.60;95.02;100960.44;4934277;28;21006;-52
2022/09/25 02:54:07;;;;;;;18.92;4.28;;;;;;;12.60;93.87;100963.09;5056716;28;20055;-50
2022/09/25 02:56:46;;;;;;;12.18;3.80;;;;;;;12.62;94.45;100956.59;5056902;28;20049;-53
2022/09/25 02:59:20;;;;;;;17.35;3.92;;;;;;;12.59;93.54;100966.78;5056536;28;20426;-53
2022/09/25 03:01:48;;;;;;;21.42;3.90;;;;;;;12.57;93.09;100961.59;5056602;28;20099;-53
2022/09/25 03:04:16;;;;;;;19.20;3.47;;;;;;;12.61;92.32;100962.13;5056131;28;20052;-51
2022/09/25 03:06:44;;;;;;;21.67;3.97;;;;;;;12.58;92.88;100973.91;5056115;28;20430;-53
2022/09/25 03:09:14;;;;;;;14.38;3.05;;;;;;;12.61;92.69;100962.94;5056530;28;20048;-51
2022/09/25 03:11:42;;;;;;;15.63;3.53;;;;;;;12.66;92.52;100965.97;5056093;28;20055;-51
2022/09/25 03:14:09;;;;;;;13.63;3.22;;;;;;;12.69;91.57;100964.78;5056527;28;20048;-52
2022/09/25 03:16:44;;;;;;;15.50;3.40;;;;;;;12.70;91.44;100970.94;5055117;28;20056;-52
2022/09/25 03:19:12;;;;;;;16.45;3.30;;;;;;;12.59;91.26;100972.91;5054598;28;20136;-53
2022/09/25 03:21:39;;;;;;;22.10;3.55;;;;;;;12.65;91.72;100979.41;5056078;28;20494;-49
2022/09/25 03:24:08;;;;;;;17.95;4.40;;;;;;;12.77;90.63;100969.28;5055926;28;20095;-48
2022/09/25 03:26:34;;;;;;;18.35;3.17;;;;;;;12.86;90.01;100973.63;5055732;28;20486;-49
2022/09/25 03:29:01;;;;;;;16.58;3.28;;;;;;;12.77;89.27;100974.63;5054834;28;20068;-50
2022/09/25 03:31:29;;;;;;;17.02;3.30;;;;;;;12.77;89.62;100969.28;5056205;28;20045;-52
2022/09/25 03:33:56;;;;;;;16.25;3.25;;;;;;;12.80;89.17;100967.13;5056101;28;20052;-51
2022/09/25 03:36:26;;;;;;;21.85;3.38;;;;;;;12.72;89.37;100977.78;5055051;28;20067;-52
2022/09/25 03:38:57;;;;;;;15.73;2.85;;;;;;;12.62;88.92;100974.41;5056061;28;20041;-53
2022/09/25 03:41:28;;;;;;;14.68;2.80;;;;;;;12.65;88.83;100974.91;5055334;28;20037;-52
2022/09/25 03:43:56;;;;;;;16.13;2.90;;;;;;;12.67;89.45;100972.94;5056100;28;20072;-50
2022/09/25 03:46:26;;;;;;;13.00;3.05;;;;;;;12.51;89.12;100972.88;5055909;28;20053;-49
2022/09/25 03:48:54;;;;;;;18.58;3.30;;;;;;;12.48;89.41;100976.69;5055969;28;20051;-49
2022/09/25 03:51:21;;;;;;;21.95;3.80;;;;;;;12.50;90.40;100971.22;4934745;28;20613;-53
2022/09/25 03:53:49;;;;;;;23.73;3.42;;;;;;;12.57;89.82;100969.59;5055788;28;20126;-53
2022/09/25 03:56:19;;;;;;;15.30;3.10;;;;;;;12.61;90.00;100978.09;5055439;28;20049;-53
2022/09/25 03:58:47;;;;;;;15.00;3.10;;;;;;;12.67;90.27;100975.59;5055701;28;20045;-52
2022/09/25 04:01:14;;;;;;;14.73;3.00;;;;;;;12.59;89.76;100974.75;5055057;28;20037;-50
2022/09/25 04:03:45;;;;;;;14.15;3.38;;;;;;;12.52;89.32;100971.91;5054844;28;20045;-52
2022/09/25 04:06:18;;;;;;;16.00;3.10;;;;;;;12.46;89.69;100973.38;5055099;28;20044;-53
2022/09/25 04:08:46;;;;;;;14.05;3.70;;;;;;;12.40;89.81;100974.00;5055399;28;20041;-52
2022/09/25 04:11:15;;;;;;;20.30;3.67;;;;;;;12.42;90.40;100972.00;5054790;28;20045;-53
2022/09/25 04:13:42;;;;;;;16.70;3.35;;;;;;;12.37;89.74;100970.81;5054920;28;20045;-52
2022/09/25 04:16:12;;;;;;;14.27;3.40;;;;;;;12.26;90.09;100972.78;5055349;28;20098;-53
2022/09/25 04:18:41;;;;;;;16.17;3.35;;;;;;;12.24;90.45;100972.13;5054967;28;20502;-52
2022/09/25 04:21:10;;;;;;;21.77;3.90;;;;;;;12.36;90.65;100971.84;5053707;28;20051;-53
2022/09/25 04:23:38;;;;;;;23.55;3.72;;;;;;;12.38;90.49;100965.34;5055056;28;20045;-52
2022/09/25 04:26:06;;;;;;;16.35;4.25;;;;;;;12.40;90.41;100966.00;5054882;28;20049;-52
2022/09/25 04:28:33;;;;;;;15.23;3.50;;;;;;;12.36;90.05;100958.53;5053551;28;20081;-52
2022/09/25 04:31:00;;;;;;;17.02;3.70;;;;;;;12.29;90.36;100963.66;5054443;28;20037;-53
2022/09/25 04:33:58;;;;;;;18.92;3.80;;;;;;;12.29;90.46;100964.47;5055142;28;20055;-52
2022/09/25 04:36:15;;;;;;;17.08;4.00;;;;;;;12.27;90.42;100961.16;5054539;28;20065;-50
2022/09/25 04:38:42;;;;;;;15.30;3.13;;;;;;;12.39;90.51;100955.56;5055108;28;20053;-50
2022/09/25 04:41:10;;;;;;;14.95;3.60;;;;;;;12.52;89.81;100955.09;5054493;28;20041;-52
2022/09/25 04:43:37;;;;;;;15.45;3.45;;;;;;;12.42;89.60;100958.69;5054801;28;20098;-51
2022/09/25 04:46:06;;;;;;;20.25;3.70;;;;;;;12.18;90.24;100964.75;5054794;28;20048;-51
2022/09/25 04:48:34;;;;;;;14.27;3.38;;;;;;;12.22;90.69;100965.28;5037091;28;20049;-52
2022/09/25 04:51:03;;;;;;;15.85;3.60;;;;;;;12.08;90.86;100980.03;4994740;28;20041;-50
2022/09/25 04:53:33;;;;;;;17.83;4.22;;;;;;;12.04;90.95;100982.16;4974255;28;20075;-52
2022/09/25 04:56:06;;;;;;;13.05;3.38;;;;;;;11.96;91.06;100978.63;5054815;28;20111;-52
2022/09/25 04:58:36;;;;;;;20.63;3.80;;;;;;;12.00;90.84;100979.97;5054269;28;20045;-51
2022/09/25 05:01:05;;;;;;;17.05;3.90;;;;;;;12.01;90.68;100976.31;5054431;28;20095;-51
2022/09/25 05:03:32;;;;;;;18.00;4.00;;;;;;;12.01;90.45;100978.97;5054046;28;20044;-51
2022/09/25 05:05:59;;;;;;;12.02;3.28;;;;;;;12.01;90.65;100979.81;5054030;28;20095;-51
2022/09/25 05:08:26;;;;;;;21.30;3.72;;;;;;;11.95;90.53;100974.28;5054155;28;20037;-52
2022/09/25 05:10:53;;;;;;;15.57;3.22;;;;;;;11.88;90.44;100977.53;5054014;28;20045;-49
2022/09/25 05:13:20;;;;;;;20.88;3.90;;;;;;;11.97;90.03;100975.81;5052414;28;20379;-50
2022/09/25 05:15:46;;;;;;;18.63;3.25;;;;;;;11.93;90.69;100976.25;5052800;28;20037;-48
2022/09/25 05:18:16;;;;;;;13.50;3.47;;;;;;;11.90;89.95;100977.44;5053984;28;20159;-51
2022/09/25 05:20:44;;;;;;;23.13;4.90;;;;;;;11.84;90.03;100968.22;5053606;28;20045;-49
2022/09/25 05:23:12;;;;;;;17.15;3.35;;;;;;;11.86;90.11;100970.69;5053799;28;20056;-52
2022/09/25 05:25:38;;;;;;;23.05;3.30;;;;;;;11.87;90.23;100969.72;5054245;28;20052;-50
2022/09/25 05:28:06;;;;;;;15.82;3.00;;;;;;;11.85;89.93;100969.88;5053005;28;20140;-50
2022/09/25 05:30:34;;;;;;;16.38;3.05;;;;;;;11.87;89.81;100972.38;5052528;28;20029;-50
2022/09/25 05:33:00;;;;;;;13.45;3.25;;;;;;;11.86;89.71;100968.91;5053911;28;20045;-50
2022/09/25 05:35:31;;;;;;;14.68;3.13;;;;;;;11.81;89.53;100973.03;5054083;28;20045;-49
2022/09/25 05:37:58;;;;;;;18.13;3.33;;;;;;;11.82;89.45;100964.84;5053670;28;20033;-48
2022/09/25 05:40:25;;;;;;;14.88;3.00;;;;;;;11.86;89.68;100976.88;5053227;28;20384;-50
2022/09/25 05:42:54;;;;;;;24.02;3.65;;;;;;;11.83;89.54;100971.84;5053577;28;20049;-50
2022/09/25 05:45:22;;;;;;;19.90;2.95;;;;;;;11.80;89.50;100968.69;5053552;28;20048;-50
2022/09/25 05:47:58;;;;;;;20.20;3.08;;;;;;;11.86;89.38;100971.56;5053566;28;20524;-51
2022/09/25 05:50:25;;;;;;;18.30;3.13;;;;;;;11.84;89.60;100975.34;5052072;28;20048;-51
2022/09/25 05:52:56;;;;;;;13.05;3.08;;;;;;;11.83;89.72;100979.84;4933861;28;20040;-51
2022/09/25 05:55:23;;;;;;;16.65;3.40;;;;;;;11.84;89.49;100981.50;5053698;28;20048;-52
2022/09/25 05:57:50;;;;;;;20.38;3.17;;;;;;;11.94;89.65;100989.41;5053313;28;20045;-48
2022/09/25 06:00:18;;;;;;;20.35;3.22;;;;;;;11.95;88.61;100982.25;5053369;28;20132;-48
2022/09/25 06:02:44;;;;;;;14.48;2.95;;;;;;;11.92;88.51;100983.41;5053018;28;20049;-48
2022/09/25 06:05:11;;;;;;;16.02;3.13;;;;;;;12.03;88.36;100980.47;5052955;28;20120;-48
2022/09/25 06:07:38;;;;;;;19.15;2.72;;;;;;;12.01;87.88;100987.78;5053191;28;20095;-48
2022/09/25 06:10:05;;;;;;;18.52;2.95;;;;;;;11.98;87.96;100989.91;5053312;28;20095;-49
2022/09/25 06:12:32;;;;;;;19.08;2.72;;;;;;;11.98;87.45;100989.91;5053036;28;20053;-48
2022/09/25 06:14:58;;;;;;;17.02;3.45;;;;;;;12.00;87.89;100996.75;5052887;28;20477;-49
2022/09/25 06:17:25;;;;;;;14.23;3.10;;;;;;;12.10;87.39;100991.34;5053397;28;20552;-48
2022/09/25 06:19:52;;;;;;;13.75;3.22;;;;;;;12.15;86.33;100988.19;5052769;28;20055;-47
2022/09/25 06:22:18;;;;;;;11.68;2.70;;;;;;;12.14;85.64;100987.34;5053159;28;20056;-51
2022/09/25 06:24:47;;;;;;;12.63;2.63;;;;;;;12.15;85.67;100994.34;5052718;28;20073;-49
2022/09/25 06:27:14;;;;;;;16.65;2.97;;;;;;;12.20;85.59;100996.53;5052559;28;20057;-48
2022/09/25 06:29:43;;;;;;;15.80;3.05;;;;;;;12.21;85.57;101000.88;5052740;28;20100;-48
2022/09/25 06:32:10;;;;;;;12.75;2.70;;;;;;;12.29;85.59;101004.38;5052902;28;20045;-48
2022/09/25 06:34:36;;;;;;;16.95;2.97;;;;;;;12.33;84.92;101002.22;5053212;28;20057;-48
2022/09/25 06:37:03;;;;;;;17.48;2.72;;;;;;;12.38;84.15;101009.75;5052545;28;20091;-48
2022/09/25 06:39:32;;;;;;;12.63;2.53;;;;;;;12.31;84.99;101009.53;5053127;28;20486;-53
2022/09/25 06:41:58;;;;;;;18.80;3.03;;;;;;;12.33;84.84;101012.03;5052228;28;20052;-49
2022/09/25 06:44:27;;;;;;;17.88;2.67;;;;;;;12.32;84.70;101013.06;5053140;28;20491;-48
2022/09/25 06:46:53;;;;;;;18.42;3.15;;;;;;;12.31;84.43;101016.69;5052848;28;20243;-49
2022/09/25 06:49:20;;;;;;;18.23;3.55;;;;;;;12.34;84.53;101003.91;5052855;28;20049;-47
2022/09/25 06:51:49;;;;;;;18.17;3.17;;;;;;;12.47;84.92;101011.44;4941363;28;20045;-48
2022/09/25 06:54:16;;;;;;;14.27;3.50;;;;;;;12.45;84.83;101010.78;5052712;28;20047;-54
2022/09/25 06:56:48;;;;;;;18.33;3.63;;;;;;;12.52;86.06;101010.97;5052605;28;20095;-48
2022/09/25 06:59:15;;;;;;;26.35;4.80;;;;;;;12.64;85.12;101005.22;5051554;28;20166;-48
2022/09/25 07:01:42;;;;;;;25.67;4.78;;;;;;;12.51;85.66;101009.31;5052756;28;20094;-49
2022/09/25 07:04:09;;;;;;;23.80;4.80;;;;;;;12.49;85.64;101009.47;5050948;28;20811;-48
2022/09/25 07:06:36;;;;;;;24.52;4.70;;;;;;;12.51;85.44;101014.63;5052408;28;20041;-51
2022/09/25 07:09:03;;;;;;;21.25;4.65;;;;;;;12.53;85.45;101020.63;5048594;28;20048;-51
2022/09/25 07:11:30;;;;;;;33.53;5.78;;;;;;;12.49;85.12;101020.09;5052423;28;20498;-51
2022/09/25 07:13:57;;;;;;;23.50;4.78;;;;;;;12.53;85.30;101015.28;5051846;28;20402;-49
2022/09/25 07:16:26;;;;;;;18.85;4.60;;;;;;;12.63;85.06;101022.16;5052539;28;20083;-51
2022/09/25 07:18:56;;;;;;;22.80;4.97;;;;;;;12.59;84.48;101018.16;5052171;28;20486;-50
2022/09/25 07:21:24;;;;;;;21.77;5.57;;;;;;;12.74;83.45;101015.72;5049954;28;20045;-49
2022/09/25 07:23:51;;;;;;;18.98;4.97;;;;;;;12.86;83.69;101022.41;5052354;28;20110;-50
2022/09/25 07:26:21;;;;;;;22.55;4.30;;;;;;;12.71;83.60;101029.34;5052727;28;20049;-51
2022/09/25 07:28:54;;;;;;;23.42;5.38;;;;;;;12.70;83.57;101026.81;5051267;28;20513;-49
2022/09/25 07:31:26;;;;;;;24.33;5.70;;;;;;;12.65;84.16;101035.31;5052264;28;20120;-51
2022/09/25 07:33:53;;;;;;;20.13;4.82;;;;;;;12.60;83.99;101032.28;5052295;28;20417;-50
2022/09/25 07:36:20;;;;;;;21.27;4.70;;;;;;;12.61;83.03;101042.78;5055492;28;20049;-51
2022/09/25 07:38:49;;;;;;;19.55;4.78;;;;;;;12.63;83.29;101039.97;5055798;28;20041;-51
2022/09/25 07:41:17;;;;;;;19.05;4.80;;;;;;;12.68;82.38;101046.47;5055815;28;20532;-48
2022/09/25 07:43:44;;;;;;;22.05;4.28;;;;;;;12.72;82.12;101041.66;5055799;28;20049;-50
2022/09/25 07:46:11;;;;;;;26.98;5.10;;;;;;;12.79;81.77;101034.69;5055777;28;20041;-48
2022/09/25 07:48:38;;;;;;;29.38;4.40;;;;;;;12.79;81.67;101037.38;5054593;28;20069;-48
2022/09/25 07:51:08;;;;;;;19.58;4.78;;;;;;;12.74;81.61;101030.84;4955924;28;20957;-49
2022/09/25 07:53:34;;;;;;;27.88;5.20;;;;;;;12.73;81.93;101045.16;5053632;28;20135;-52
2022/09/25 07:56:01;;;;;;;20.55;5.35;;;;;;;12.77;82.37;101041.16;5054136;28;20041;-51
2022/09/25 07:58:31;;;;;;;18.85;4.80;;;;;;;12.76;81.41;101028.88;5055471;28;20067;-51
2022/09/25 08:00:59;;;;;;;16.13;5.28;;;;;;;12.80;81.03;101031.03;5055501;28;20041;-50
2022/09/25 08:03:27;;;;;;;19.67;5.65;;;;;;;12.94;81.71;101034.09;5055104;28;20098;-51
2022/09/25 08:05:59;;;;;;;23.67;5.65;;;;;;;12.94;81.25;101040.22;5055185;28;20102;-51
2022/09/25 08:08:27;;;;;;;26.05;5.95;;;;;;;12.93;81.94;101038.56;5055282;28;20099;-51
2022/09/25 08:11:01;;;;;;;24.40;6.38;;;;;;;13.06;81.58;101028.28;5037564;28;20041;-51
2022/09/25 08:13:31;;;;;;;27.92;6.25;;;;;;;13.09;80.21;101035.09;5054773;28;20045;-52
2022/09/25 08:16:00;;;;;;;20.75;5.63;;;;;;;13.17;80.29;101037.78;5053652;28;20522;-50
2022/09/25 08:18:27;;;;;;;24.88;4.97;;;;;;;13.33;79.55;101036.16;5054857;28;20053;-51
2022/09/25 08:21:00;;;;;;;24.80;6.30;;;;;;;13.46;79.27;101041.00;5053357;28;20083;-51
2022/09/25 08:23:27;;;;;;;22.55;6.32;;;;;;;13.64;78.15;101041.69;5054762;28;20402;-49
2022/09/25 08:25:53;;;;;;;23.23;6.45;;;;;;;13.49;77.36;101043.34;5054947;28;20053;-52
2022/09/25 08:28:21;;;;;;;23.95;5.35;;;;;;;13.49;77.99;101038.03;5054073;28;20044;-50
2022/09/25 08:30:48;;;;;;;19.77;5.03;;;;;;;13.59;76.46;101041.38;5054452;28;20088;-51
2022/09/25 08:33:15;;;;;;;19.10;4.72;;;;;;;13.59;76.91;101039.53;5054958;28;20132;-51
2022/09/25 08:35:42;;;;;;;20.55;5.13;;;;;;;13.42;76.76;101043.19;5052998;28;20041;-51
2022/09/25 08:38:11;;;;;;;24.60;4.78;;;;;;;13.36;76.88;101041.19;5054719;28;20053;-50
2022/09/25 08:40:48;;;;;;;22.13;4.80;;;;;;;13.66;76.78;101033.53;5054614;28;20048;-51
2022/09/25 08:43:21;;;;;;;20.58;5.13;;;;;;;13.73;76.34;101029.19;5054245;28;20446;-53
2022/09/25 08:49:01;;;;;;;22.67;4.78;;;;;;;13.94;76.03;101028.69;5054165;28;20045;-50
2022/09/25 08:51:30;;;;;;;19.65;4.85;;;;;;;13.98;74.05;101035.34;4965225;28;20529;-49
2022/09/25 08:53:58;;;;;;;24.50;5.13;;;;;;;13.91;74.57;101037.81;5009006;28;20090;-48
2022/09/25 08:56:28;;;;;;;18.80;4.45;;;;;;;13.94;73.51;101040.16;5053208;28;20052;-50
2022/09/25 08:59:01;;;;;;;23.00;3.97;;;;;;;13.83;72.63;101033.34;5053799;28;20041;-52
2022/09/25 09:01:40;;;;;;;18.67;4.22;;;;;;;13.76;71.18;101031.53;5054229;28;20037;-52
2022/09/25 09:04:30;;;;;;;17.50;3.55;;;;;;;14.19;70.38;101046.28;5053756;28;20163;-49
2022/09/25 09:07:05;;;;;;;24.15;4.18;;;;;;;14.19;70.04;101038.28;5054054;28;20131;-48
2022/09/25 09:10:30;;;;;;;13.02;2.83;;;;;;;13.83;69.42;101041.34;5053862;28;20437;-53
2022/09/25 09:13:08;;;;;;;16.48;3.40;;;;;;;14.48;68.65;101038.69;5053828;28;20087;-52
2022/09/25 09:15:41;;;;;;;17.30;3.30;;;;;;;15.59;64.73;101036.75;5054065;28;20491;-51
2022/09/25 09:18:26;;;;;;;18.30;3.80;;;;;;;16.56;61.14;101044.00;5054272;28;20077;-52
2022/09/25 09:20:56;;;;;;;13.15;3.13;;;;;;;16.56;60.22;101041.31;5034729;28;20433;-50
2022/09/25 09:23:30;;;;;;;18.35;3.05;;;;;;;17.88;55.65;101034.88;5053899;28;20091;-52
2022/09/25 09:26:02;;;;;;;12.10;2.72;;;;;;;18.52;54.98;101036.50;5053841;28;20120;-52
2022/09/25 09:28:49;;;;;;;14.88;2.50;;;;;;;19.32;51.18;101034.97;5049063;28;20061;-52
2022/09/25 09:31:45;;;;;;;14.00;2.03;;;;;;;18.02;52.37;101036.66;5053905;28;20087;-51
2022/09/25 09:34:46;;;;;;;13.20;2.33;;;;;;;18.68;50.85;101036.19;5053484;28;20045;-53
2022/09/25 09:43:30;;;;;;;15.20;1.80;;;;;;;18.14;49.93;101028.88;5110675;27;20707;-51
2022/09/25 09:46:12;;;;;;;12.13;1.95;;;;;;;19.80;46.50;101022.38;5110658;28;20036;-52
2022/09/25 09:49:00;;;;;;;14.63;1.90;;;;;;;17.83;50.96;101024.72;5110948;28;20051;-50
2022/09/25 09:51:34;;;;;;;15.85;2.08;;;;;;;17.14;53.79;101020.81;4976219;28;20514;-49
2022/09/25 09:54:10;;;;;;;7.45;1.50;;;;;;;16.50;54.13;101016.94;5108641;28;20053;-52
2022/09/25 09:56:41;;;;;;;12.77;2.20;;;;;;;15.82;55.94;101018.03;5105243;28;20039;-50
2022/09/25 09:59:22;;;;;;;8.57;2.08;;;;;;;15.71;56.95;101016.59;5096409;28;20169;-48
2022/09/25 10:02:01;;;;;;;13.88;2.10;;;;;;;17.44;53.25;101026.88;5097282;28;20036;-48
2022/09/25 10:04:35;;;;;;;14.10;1.73;;;;;;;18.98;49.53;101017.91;5108156;28;20075;-48
2022/09/25 10:07:08;;;;;;;16.08;2.42;;;;;;;20.16;45.53;101024.59;5101561;28;20068;-48
2022/09/25 10:09:36;;;;;;;11.48;1.70;;;;;;;22.49;40.53;101024.09;5096876;28;20043;-48
2022/09/25 10:12:09;;;;;;;11.00;1.83;;;;;;;20.33;43.16;101023.09;5094674;28;20040;-51
2022/09/25 10:14:41;;;;;;;8.77;1.60;;;;;;;18.84;46.47;101026.97;5102604;28;20040;-49
2022/09/25 10:17:10;;;;;;;8.05;1.83;;;;;;;19.98;43.84;101024.44;5099410;28;20125;-51
2022/09/25 10:19:47;;;;;;;12.15;1.75;;;;;;;22.20;39.62;101021.88;5104513;28;20055;-52
2022/09/25 10:22:19;;;;;;;8.85;1.83;;;;;;;23.54;35.19;101015.56;5104569;28;20051;-52
2022/09/25 10:24:57;;;;;;;10.57;2.10;;;;;;;21.07;39.66;101017.41;5109694;28;20482;-50
2022/09/25 10:27:45;;;;;;;20.40;2.05;;;;;;;22.36;36.42;101020.50;5108968;28;20486;-53
2022/09/25 10:30:16;;;;;;;8.70;1.92;;;;;;;21.81;38.24;101013.16;5108676;28;20040;-51
2022/09/25 10:33:12;;;;;;;10.93;1.75;;;;;;;23.40;35.47;101024.94;5107611;28;20040;-51
2022/09/25 10:35:42;;;;;;;12.38;2.40;;;;;;;23.93;35.66;101015.13;5102177;28;20122;-50
2022/09/25 10:38:32;;;;;;;14.32;3.58;;;;;;;21.20;40.87;101011.13;5108493;28;20044;-51
2022/09/25 10:41:05;;;;;;;12.10;3.22;;;;;;;21.01;41.50;101016.41;5107078;28;20194;-48
2022/09/25 10:43:32;;;;;;;14.77;3.53;;;;;;;21.93;40.25;101015.94;5107803;28;20142;-51
2022/09/25 10:46:14;;;;;;;15.50;3.58;;;;;;;21.75;39.73;101008.63;5109616;28;20036;-49
2022/09/25 10:51:29;;;;;;;10.70;2.47;;;;;;;21.98;39.43;101013.38;4996875;28;20040;-52
2022/09/25 10:54:15;;;;;;;12.05;3.70;;;;;;;21.32;40.00;101008.53;5092787;28;20033;-49
2022/09/25 10:56:41;;;;;;;12.00;3.28;;;;;;;21.08;41.52;101021.75;5075959;28;20461;-50
2022/09/25 10:59:20;;;;;;;14.85;4.10;;;;;;;21.31;40.28;101012.28;5079119;28;20505;-51
2022/09/25 11:01:49;;;;;;;12.90;4.10;;;;;;;21.50;39.33;101014.00;5094003;28;20226;-49
2022/09/25 11:04:27;;;;;;;13.75;4.07;;;;;;;20.62;41.30;101006.66;5092885;28;20065;-47
2022/09/25 11:07:00;;;;;;;16.25;5.15;;;;;;;19.88;42.23;101008.69;5093074;28;20086;-48
2022/09/25 11:09:31;;;;;;;15.65;5.55;;;;;;;19.61;42.17;101000.63;5095563;28;20452;-49
2022/09/25 11:12:18;;;;;;;15.77;3.88;;;;;;;20.58;41.14;101000.03;5094718;28;20044;-50
2022/09/25 11:15:01;;;;;;;17.67;3.67;;;;;;;19.07;43.69;101007.00;5091418;28;20032;-49
2022/09/25 11:17:32;;;;;;;13.60;3.53;;;;;;;20.32;42.59;100996.38;5094187;28;20066;-50
2022/09/25 11:20:21;;;;;;;16.25;3.90;;;;;;;19.49;43.60;100992.34;5094367;28;20052;-49
2022/09/25 11:23:03;;;;;;;18.13;3.72;;;;;;;18.08;46.83;101006.34;5092928;28;20044;-48
2022/09/25 11:25:40;;;;;;;16.20;3.95;;;;;;;17.89;49.57;101009.72;5082795;28;20048;-51
2022/09/25 11:28:15;;;;;;;15.80;3.60;;;;;;;17.08;48.13;101002.78;5076724;28;20083;-48
2022/09/25 11:30:50;;;;;;;13.55;3.45;;;;;;;17.24;48.37;101001.72;5093562;28;20044;-48
2022/09/25 11:33:30;;;;;;;19.75;3.80;;;;;;;18.25;47.14;101000.66;5095098;28;20095;-48
2022/09/25 11:36:04;;;;;;;16.50;3.13;;;;;;;18.98;43.83;100998.28;5091612;28;20047;-48
2022/09/25 11:41:54;;;;;;;13.98;3.35;;;;;;;20.30;41.68;100991.22;5092618;28;20440;-49
2022/09/25 11:44:31;;;;;;;16.33;2.75;;;;;;;20.15;40.85;100985.22;5093035;28;20074;-47
2022/09/25 11:47:11;;;;;;;14.48;2.50;;;;;;;19.94;41.90;100986.34;5093921;28;20051;-50
2022/09/25 11:49:40;;;;;;;13.35;3.10;;;;;;;19.95;42.24;100982.59;5095033;28;20209;-51
2022/09/25 11:52:29;;;;;;;12.32;2.78;;;;;;;20.39;40.86;100981.03;4968287;28;20041;-48
2022/09/25 11:55:30;;;;;;;10.25;2.60;;;;;;;20.85;40.81;100981.88;5092888;28;20685;-51